sensor_id;sensor_type;location;lat;lon;timestamp;P1;durP1;ratioP1;P2;durP2;ratioP2
38465;SDS011;24244;51.950;5.902;2023-05-27T00:00:22;4.80;;;1.17;;
38465;SDS011;24244;51.950;5.902;2023-05-27T00:02:49;4.65;;;1.25;;
38465;SDS011;24244;51.950;5.902;2023-05-27T00:05:16;3.38;;;0.75;;
38465;SDS011;24244;51.950;5.902;2023-05-27T00:07:45;4.07;;;1.55;;
38465;SDS011;24244;51.950;5.902;2023-05-27T00:10:12;6.15;;;1.42;;
38465;SDS011;24244;51.950;5.902;2023-05-27T00:12:38;5.60;;;1.50;;
38465;SDS011;24244;51.950;5.902;2023-05-27T00:15:06;3.40;;;1.00;;
38465;SDS011;24244;51.950;5.902;2023-05-27T00:17:34;3.03;;;0.90;;
38465;SDS011;24244;51.950;5.902;2023-05-27T00:20:01;5.47;;;1.65;;
38465;SDS011;24244;51.950;5.902;2023-05-27T00:22:34;4.43;;;1.40;;
38465;SDS011;24244;51.950;5.902;2023-05-27T00:25:02;6.68;;;1.65;;
38465;SDS011;24244;51.950;5.902;2023-05-27T00:27:30;4.57;;;1.50;;
38465;SDS011;24244;51.950;5.902;2023-05-27T00:29:56;4.32;;;1.40;;
38465;SDS011;24244;51.950;5.902;2023-05-27T00:32:24;4.38;;;1.42;;
38465;SDS011;24244;51.950;5.902;2023-05-27T00:34:51;3.63;;;1.27;;
38465;SDS011;24244;51.950;5.902;2023-05-27T00:37:17;3.78;;;1.48;;
38465;SDS011;24244;51.950;5.902;2023-05-27T00:39:44;5.95;;;1.85;;
38465;SDS011;24244;51.950;5.902;2023-05-27T00:42:12;3.92;;;1.05;;
38465;SDS011;24244;51.950;5.902;2023-05-27T00:44:39;4.50;;;1.40;;
38465;SDS011;24244;51.950;5.902;2023-05-27T00:47:06;3.50;;;1.45;;
38465;SDS011;24244;51.950;5.902;2023-05-27T00:49:33;3.97;;;1.05;;
38465;SDS011;24244;51.950;5.902;2023-05-27T00:52:00;3.70;;;1.08;;
38465;SDS011;24244;51.950;5.902;2023-05-27T00:54:27;3.05;;;0.98;;
38465;SDS011;24244;51.950;5.902;2023-05-27T00:56:54;4.70;;;1.30;;
38465;SDS011;24244;51.950;5.902;2023-05-27T00:59:23;6.00;;;1.33;;
38465;SDS011;24244;51.950;5.902;2023-05-27T01:01:51;3.88;;;1.60;;
38465;SDS011;24244;51.950;5.902;2023-05-27T01:04:18;4.30;;;0.90;;
38465;SDS011;24244;51.950;5.902;2023-05-27T01:06:48;5.25;;;1.88;;
38465;SDS011;24244;51.950;5.902;2023-05-27T01:09:26;2.20;;;0.85;;
38465;SDS011;24244;51.950;5.902;2023-05-27T01:11:59;6.10;;;1.63;;
38465;SDS011;24244;51.950;5.902;2023-05-27T01:14:36;5.40;;;1.75;;
38465;SDS011;24244;51.950;5.902;2023-05-27T01:17:05;4.53;;;1.60;;
38465;SDS011;24244;51.950;5.902;2023-05-27T01:19:34;4.32;;;1.30;;
38465;SDS011;24244;51.950;5.902;2023-05-27T01:22:02;5.00;;;1.73;;
38465;SDS011;24244;51.950;5.902;2023-05-27T01:24:32;5.28;;;1.58;;
38465;SDS011;24244;51.950;5.902;2023-05-27T01:26:59;3.67;;;1.60;;
38465;SDS011;24244;51.950;5.902;2023-05-27T01:29:28;4.03;;;1.60;;
38465;SDS011;24244;51.950;5.902;2023-05-27T01:32:00;2.25;;;1.10;;
38465;SDS011;24244;51.950;5.902;2023-05-27T01:34:33;3.33;;;1.55;;
38465;SDS011;24244;51.950;5.902;2023-05-27T01:37:06;3.63;;;1.25;;
38465;SDS011;24244;51.950;5.902;2023-05-27T01:39:41;5.00;;;1.45;;
38465;SDS011;24244;51.950;5.902;2023-05-27T01:42:09;4.93;;;1.50;;
38465;SDS011;24244;51.950;5.902;2023-05-27T01:44:36;3.00;;;1.30;;
38465;SDS011;24244;51.950;5.902;2023-05-27T01:47:04;6.57;;;1.50;;
38465;SDS011;24244;51.950;5.902;2023-05-27T01:49:31;7.15;;;1.73;;
38465;SDS011;24244;51.950;5.902;2023-05-27T01:51:58;6.15;;;1.80;;
38465;SDS011;24244;51.950;5.902;2023-05-27T01:54:24;5.72;;;2.08;;
38465;SDS011;24244;51.950;5.902;2023-05-27T01:56:53;4.00;;;2.10;;
38465;SDS011;24244;51.950;5.902;2023-05-27T01:59:20;5.05;;;1.02;;
38465;SDS011;24244;51.950;5.902;2023-05-27T02:01:46;6.03;;;1.85;;
38465;SDS011;24244;51.950;5.902;2023-05-27T02:04:13;4.72;;;1.88;;
38465;SDS011;24244;51.950;5.902;2023-05-27T02:06:40;5.68;;;1.48;;
38465;SDS011;24244;51.950;5.902;2023-05-27T02:09:07;9.00;;;2.30;;
38465;SDS011;24244;51.950;5.902;2023-05-27T02:11:34;6.75;;;1.50;;
38465;SDS011;24244;51.950;5.902;2023-05-27T02:14:02;6.18;;;1.20;;
38465;SDS011;24244;51.950;5.902;2023-05-27T02:16:31;3.80;;;1.25;;
38465;SDS011;24244;51.950;5.902;2023-05-27T02:19:00;5.05;;;1.15;;
38465;SDS011;24244;51.950;5.902;2023-05-27T02:21:27;3.78;;;1.55;;
38465;SDS011;24244;51.950;5.902;2023-05-27T02:23:54;4.93;;;1.48;;
38465;SDS011;24244;51.950;5.902;2023-05-27T02:26:21;4.70;;;1.67;;
38465;SDS011;24244;51.950;5.902;2023-05-27T02:28:48;4.40;;;1.50;;
38465;SDS011;24244;51.950;5.902;2023-05-27T02:31:16;4.82;;;1.60;;
38465;SDS011;24244;51.950;5.902;2023-05-27T02:33:43;4.93;;;1.50;;
38465;SDS011;24244;51.950;5.902;2023-05-27T02:36:10;4.30;;;1.30;;
38465;SDS011;24244;51.950;5.902;2023-05-27T02:38:36;5.03;;;1.60;;
38465;SDS011;24244;51.950;5.902;2023-05-27T02:41:03;3.28;;;1.00;;
38465;SDS011;24244;51.950;5.902;2023-05-27T02:43:30;3.90;;;1.42;;
38465;SDS011;24244;51.950;5.902;2023-05-27T02:45:57;5.57;;;1.33;;
38465;SDS011;24244;51.950;5.902;2023-05-27T02:48:25;3.58;;;1.50;;
38465;SDS011;24244;51.950;5.902;2023-05-27T02:50:52;3.60;;;1.65;;
38465;SDS011;24244;51.950;5.902;2023-05-27T02:53:18;6.75;;;1.70;;
38465;SDS011;24244;51.950;5.902;2023-05-27T02:55:45;4.57;;;1.20;;
38465;SDS011;24244;51.950;5.902;2023-05-27T02:58:12;4.43;;;1.65;;
38465;SDS011;24244;51.950;5.902;2023-05-27T03:00:39;6.40;;;1.58;;
38465;SDS011;24244;51.950;5.902;2023-05-27T03:03:06;5.72;;;1.48;;
38465;SDS011;24244;51.950;5.902;2023-05-27T03:05:36;5.47;;;1.75;;
38465;SDS011;24244;51.950;5.902;2023-05-27T03:08:02;7.93;;;1.95;;
38465;SDS011;24244;51.950;5.902;2023-05-27T03:10:32;4.28;;;1.67;;
38465;SDS011;24244;51.950;5.902;2023-05-27T03:13:00;4.93;;;1.48;;
38465;SDS011;24244;51.950;5.902;2023-05-27T03:15:27;4.32;;;1.52;;
38465;SDS011;24244;51.950;5.902;2023-05-27T03:17:57;5.82;;;1.83;;
38465;SDS011;24244;51.950;5.902;2023-05-27T03:20:25;5.00;;;1.63;;
38465;SDS011;24244;51.950;5.902;2023-05-27T03:22:53;6.20;;;1.63;;
38465;SDS011;24244;51.950;5.902;2023-05-27T03:25:21;5.18;;;1.98;;
38465;SDS011;24244;51.950;5.902;2023-05-27T03:27:48;7.43;;;2.10;;
38465;SDS011;24244;51.950;5.902;2023-05-27T03:30:15;4.40;;;1.83;;
38465;SDS011;24244;51.950;5.902;2023-05-27T03:32:42;5.00;;;1.80;;
38465;SDS011;24244;51.950;5.902;2023-05-27T03:35:08;6.43;;;1.85;;
38465;SDS011;24244;51.950;5.902;2023-05-27T03:37:35;5.32;;;1.40;;
38465;SDS011;24244;51.950;5.902;2023-05-27T03:40:04;6.10;;;1.90;;
38465;SDS011;24244;51.950;5.902;2023-05-27T03:42:32;3.05;;;1.42;;
38465;SDS011;24244;51.950;5.902;2023-05-27T03:44:59;6.55;;;1.38;;
38465;SDS011;24244;51.950;5.902;2023-05-27T03:47:26;4.82;;;1.38;;
38465;SDS011;24244;51.950;5.902;2023-05-27T03:49:52;4.80;;;1.73;;
38465;SDS011;24244;51.950;5.902;2023-05-27T03:52:19;4.80;;;1.63;;
38465;SDS011;24244;51.950;5.902;2023-05-27T03:54:46;5.32;;;1.67;;
38465;SDS011;24244;51.950;5.902;2023-05-27T03:57:14;4.13;;;1.23;;
38465;SDS011;24244;51.950;5.902;2023-05-27T03:59:41;3.95;;;1.08;;
38465;SDS011;24244;51.950;5.902;2023-05-27T04:02:07;3.63;;;1.35;;
38465;SDS011;24244;51.950;5.902;2023-05-27T04:04:34;5.93;;;1.40;;
38465;SDS011;24244;51.950;5.902;2023-05-27T04:07:01;4.43;;;1.98;;
38465;SDS011;24244;51.950;5.902;2023-05-27T04:09:29;5.70;;;1.40;;
38465;SDS011;24244;51.950;5.902;2023-05-27T04:11:57;4.18;;;1.70;;
38465;SDS011;24244;51.950;5.902;2023-05-27T04:14:26;4.55;;;1.60;;
38465;SDS011;24244;51.950;5.902;2023-05-27T04:16:53;4.80;;;1.38;;
38465;SDS011;24244;51.950;5.902;2023-05-27T04:19:19;5.22;;;2.05;;
38465;SDS011;24244;51.950;5.902;2023-05-27T04:21:47;4.82;;;1.90;;
38465;SDS011;24244;51.950;5.902;2023-05-27T04:24:14;7.05;;;1.40;;
38465;SDS011;24244;51.950;5.902;2023-05-27T04:26:41;6.28;;;1.90;;
38465;SDS011;24244;51.950;5.902;2023-05-27T04:29:09;8.40;;;2.22;;
38465;SDS011;24244;51.950;5.902;2023-05-27T04:31:40;6.53;;;1.60;;
38465;SDS011;24244;51.950;5.902;2023-05-27T04:34:07;8.82;;;2.42;;
38465;SDS011;24244;51.950;5.902;2023-05-27T04:36:34;4.63;;;2.05;;
38465;SDS011;24244;51.950;5.902;2023-05-27T04:39:01;4.82;;;1.70;;
38465;SDS011;24244;51.950;5.902;2023-05-27T04:41:28;4.80;;;1.70;;
38465;SDS011;24244;51.950;5.902;2023-05-27T04:43:56;7.53;;;1.92;;
38465;SDS011;24244;51.950;5.902;2023-05-27T04:46:23;4.15;;;1.35;;
38465;SDS011;24244;51.950;5.902;2023-05-27T04:48:53;5.57;;;1.50;;
38465;SDS011;24244;51.950;5.902;2023-05-27T04:51:19;5.78;;;1.33;;
38465;SDS011;24244;51.950;5.902;2023-05-27T04:53:46;4.72;;;1.50;;
38465;SDS011;24244;51.950;5.902;2023-05-27T04:56:14;6.32;;;1.50;;
38465;SDS011;24244;51.950;5.902;2023-05-27T04:58:44;5.72;;;1.77;;
38465;SDS011;24244;51.950;5.902;2023-05-27T05:01:13;5.47;;;2.78;;
38465;SDS011;24244;51.950;5.902;2023-05-27T05:03:48;6.93;;;1.80;;
38465;SDS011;24244;51.950;5.902;2023-05-27T05:06:52;4.80;;;1.90;;
38465;SDS011;24244;51.950;5.902;2023-05-27T05:09:19;4.20;;;1.30;;
38465;SDS011;24244;51.950;5.902;2023-05-27T05:11:47;3.75;;;1.25;;
38465;SDS011;24244;51.950;5.902;2023-05-27T05:14:14;3.25;;;1.50;;
38465;SDS011;24244;51.950;5.902;2023-05-27T05:16:41;4.53;;;1.77;;
38465;SDS011;24244;51.950;5.902;2023-05-27T05:19:09;4.20;;;1.30;;
38465;SDS011;24244;51.950;5.902;2023-05-27T05:21:39;6.47;;;1.90;;
38465;SDS011;24244;51.950;5.902;2023-05-27T05:24:07;6.63;;;2.38;;
38465;SDS011;24244;51.950;5.902;2023-05-27T05:26:34;5.22;;;1.70;;
38465;SDS011;24244;51.950;5.902;2023-05-27T05:29:01;7.28;;;2.00;;
38465;SDS011;24244;51.950;5.902;2023-05-27T05:31:27;5.25;;;1.55;;
38465;SDS011;24244;51.950;5.902;2023-05-27T05:33:54;3.92;;;2.03;;
38465;SDS011;24244;51.950;5.902;2023-05-27T05:36:22;4.32;;;1.80;;
38465;SDS011;24244;51.950;5.902;2023-05-27T05:38:49;5.55;;;1.40;;
38465;SDS011;24244;51.950;5.902;2023-05-27T05:41:17;4.70;;;1.55;;
38465;SDS011;24244;51.950;5.902;2023-05-27T05:43:44;5.78;;;2.05;;
38465;SDS011;24244;51.950;5.902;2023-05-27T05:46:11;5.22;;;1.48;;
38465;SDS011;24244;51.950;5.902;2023-05-27T05:48:37;7.18;;;1.85;;
38465;SDS011;24244;51.950;5.902;2023-05-27T05:51:04;7.28;;;1.70;;
38465;SDS011;24244;51.950;5.902;2023-05-27T05:53:33;6.80;;;1.95;;
38465;SDS011;24244;51.950;5.902;2023-05-27T05:56:00;6.43;;;1.60;;
38465;SDS011;24244;51.950;5.902;2023-05-27T05:58:28;5.30;;;1.40;;
38465;SDS011;24244;51.950;5.902;2023-05-27T06:00:55;5.82;;;1.50;;
38465;SDS011;24244;51.950;5.902;2023-05-27T06:03:21;4.93;;;1.30;;
38465;SDS011;24244;51.950;5.902;2023-05-27T06:05:48;4.80;;;1.77;;
38465;SDS011;24244;51.950;5.902;2023-05-27T06:08:15;4.00;;;1.13;;
38465;SDS011;24244;51.950;5.902;2023-05-27T06:10:42;5.50;;;1.58;;
38465;SDS011;24244;51.950;5.902;2023-05-27T06:13:09;6.53;;;1.38;;
38465;SDS011;24244;51.950;5.902;2023-05-27T06:15:38;6.97;;;1.65;;
38465;SDS011;24244;51.950;5.902;2023-05-27T06:18:06;3.72;;;1.48;;
38465;SDS011;24244;51.950;5.902;2023-05-27T06:20:32;4.75;;;1.40;;
38465;SDS011;24244;51.950;5.902;2023-05-27T06:22:59;6.53;;;1.95;;
38465;SDS011;24244;51.950;5.902;2023-05-27T06:25:26;6.97;;;2.00;;
38465;SDS011;24244;51.950;5.902;2023-05-27T06:27:53;7.43;;;2.10;;
38465;SDS011;24244;51.950;5.902;2023-05-27T06:30:20;5.95;;;1.80;;
38465;SDS011;24244;51.950;5.902;2023-05-27T06:32:48;3.97;;;1.50;;
38465;SDS011;24244;51.950;5.902;2023-05-27T06:35:15;5.35;;;1.70;;
38465;SDS011;24244;51.950;5.902;2023-05-27T06:37:42;7.13;;;2.03;;
38465;SDS011;24244;51.950;5.902;2023-05-27T06:40:13;5.18;;;2.03;;
38465;SDS011;24244;51.950;5.902;2023-05-27T06:42:40;3.78;;;1.90;;
38465;SDS011;24244;51.950;5.902;2023-05-27T06:45:07;4.47;;;2.17;;
38465;SDS011;24244;51.950;5.902;2023-05-27T06:47:34;5.50;;;1.60;;
38465;SDS011;24244;51.950;5.902;2023-05-27T06:50:03;6.07;;;1.55;;
38465;SDS011;24244;51.950;5.902;2023-05-27T06:52:30;3.22;;;1.08;;
38465;SDS011;24244;51.950;5.902;2023-05-27T06:54:57;5.68;;;1.58;;
38465;SDS011;24244;51.950;5.902;2023-05-27T06:57:23;4.72;;;1.17;;
38465;SDS011;24244;51.950;5.902;2023-05-27T06:59:50;5.03;;;1.48;;
38465;SDS011;24244;51.950;5.902;2023-05-27T07:02:17;5.13;;;1.38;;
38465;SDS011;24244;51.950;5.902;2023-05-27T07:04:43;6.57;;;2.20;;
38465;SDS011;24244;51.950;5.902;2023-05-27T07:07:12;4.95;;;1.92;;
38465;SDS011;24244;51.950;5.902;2023-05-27T07:09:38;6.03;;;1.88;;
38465;SDS011;24244;51.950;5.902;2023-05-27T07:12:05;5.57;;;2.10;;
38465;SDS011;24244;51.950;5.902;2023-05-27T07:14:33;4.13;;;1.73;;
38465;SDS011;24244;51.950;5.902;2023-05-27T07:17:00;4.65;;;1.60;;
38465;SDS011;24244;51.950;5.902;2023-05-27T07:19:26;4.97;;;1.65;;
38465;SDS011;24244;51.950;5.902;2023-05-27T07:21:53;6.30;;;2.20;;
38465;SDS011;24244;51.950;5.902;2023-05-27T07:24:21;4.32;;;1.73;;
38465;SDS011;24244;51.950;5.902;2023-05-27T07:26:48;5.47;;;2.35;;
38465;SDS011;24244;51.950;5.902;2023-05-27T07:29:15;7.10;;;1.90;;
38465;SDS011;24244;51.950;5.902;2023-05-27T07:31:42;7.85;;;2.90;;
38465;SDS011;24244;51.950;5.902;2023-05-27T07:34:10;6.78;;;1.55;;
38465;SDS011;24244;51.950;5.902;2023-05-27T07:36:37;5.78;;;2.08;;
38465;SDS011;24244;51.950;5.902;2023-05-27T07:39:04;9.48;;;2.05;;
38465;SDS011;24244;51.950;5.902;2023-05-27T07:41:32;3.65;;;2.00;;
38465;SDS011;24244;51.950;5.902;2023-05-27T07:43:59;6.03;;;1.85;;
38465;SDS011;24244;51.950;5.902;2023-05-27T07:46:26;6.72;;;1.60;;
38465;SDS011;24244;51.950;5.902;2023-05-27T07:48:52;5.00;;;1.50;;
38465;SDS011;24244;51.950;5.902;2023-05-27T07:51:19;7.88;;;2.47;;
38465;SDS011;24244;51.950;5.902;2023-05-27T07:53:47;4.93;;;2.10;;
38465;SDS011;24244;51.950;5.902;2023-05-27T07:56:14;6.63;;;2.35;;
38465;SDS011;24244;51.950;5.902;2023-05-27T07:58:42;5.18;;;1.60;;
38465;SDS011;24244;51.950;5.902;2023-05-27T08:01:09;4.22;;;1.80;;
38465;SDS011;24244;51.950;5.902;2023-05-27T08:03:36;6.30;;;1.90;;
38465;SDS011;24244;51.950;5.902;2023-05-27T08:06:03;3.42;;;1.40;;
38465;SDS011;24244;51.950;5.902;2023-05-27T08:08:30;5.68;;;2.10;;
38465;SDS011;24244;51.950;5.902;2023-05-27T08:10:57;7.53;;;2.03;;
38465;SDS011;24244;51.950;5.902;2023-05-27T08:13:24;4.57;;;1.88;;
38465;SDS011;24244;51.950;5.902;2023-05-27T08:15:52;7.13;;;1.85;;
38465;SDS011;24244;51.950;5.902;2023-05-27T08:18:19;6.55;;;1.63;;
38465;SDS011;24244;51.950;5.902;2023-05-27T08:20:46;7.85;;;2.22;;
38465;SDS011;24244;51.950;5.902;2023-05-27T08:23:13;4.43;;;1.75;;
38465;SDS011;24244;51.950;5.902;2023-05-27T08:25:39;5.15;;;2.20;;
38465;SDS011;24244;51.950;5.902;2023-05-27T08:28:06;6.28;;;2.63;;
38465;SDS011;24244;51.950;5.902;2023-05-27T08:30:33;7.90;;;2.42;;
38465;SDS011;24244;51.950;5.902;2023-05-27T08:33:01;6.53;;;1.95;;
38465;SDS011;24244;51.950;5.902;2023-05-27T08:35:29;6.63;;;2.33;;
38465;SDS011;24244;51.950;5.902;2023-05-27T08:37:55;6.68;;;2.70;;
38465;SDS011;24244;51.950;5.902;2023-05-27T08:40:22;6.70;;;2.42;;
38465;SDS011;24244;51.950;5.902;2023-05-27T08:42:51;8.13;;;2.33;;
38465;SDS011;24244;51.950;5.902;2023-05-27T08:45:19;6.03;;;2.75;;
38465;SDS011;24244;51.950;5.902;2023-05-27T08:47:46;5.93;;;2.10;;
38465;SDS011;24244;51.950;5.902;2023-05-27T08:50:16;6.18;;;2.65;;
38465;SDS011;24244;51.950;5.902;2023-05-27T08:52:45;7.05;;;2.75;;
38465;SDS011;24244;51.950;5.902;2023-05-27T08:55:14;5.35;;;2.60;;
38465;SDS011;24244;51.950;5.902;2023-05-27T08:57:43;7.60;;;2.75;;
38465;SDS011;24244;51.950;5.902;2023-05-27T09:00:12;6.72;;;2.88;;
38465;SDS011;24244;51.950;5.902;2023-05-27T09:02:40;4.47;;;1.95;;
38465;SDS011;24244;51.950;5.902;2023-05-27T09:05:07;5.70;;;2.70;;
38465;SDS011;24244;51.950;5.902;2023-05-27T09:07:36;7.47;;;2.95;;
38465;SDS011;24244;51.950;5.902;2023-05-27T09:10:03;7.00;;;2.67;;
38465;SDS011;24244;51.950;5.902;2023-05-27T09:12:32;4.57;;;2.00;;
38465;SDS011;24244;51.950;5.902;2023-05-27T09:14:59;6.10;;;3.03;;
38465;SDS011;24244;51.950;5.902;2023-05-27T09:17:27;8.35;;;2.60;;
38465;SDS011;24244;51.950;5.902;2023-05-27T09:19:54;5.10;;;2.28;;
38465;SDS011;24244;51.950;5.902;2023-05-27T09:22:21;7.10;;;3.15;;
38465;SDS011;24244;51.950;5.902;2023-05-27T09:24:51;7.45;;;2.75;;
38465;SDS011;24244;51.950;5.902;2023-05-27T09:27:23;8.45;;;2.58;;
38465;SDS011;24244;51.950;5.902;2023-05-27T09:29:51;6.45;;;2.75;;
38465;SDS011;24244;51.950;5.902;2023-05-27T09:32:23;6.40;;;2.90;;
38465;SDS011;24244;51.950;5.902;2023-05-27T09:34:50;6.22;;;2.60;;
38465;SDS011;24244;51.950;5.902;2023-05-27T09:37:17;6.57;;;3.05;;
38465;SDS011;24244;51.950;5.902;2023-05-27T09:39:47;7.13;;;2.83;;
38465;SDS011;24244;51.950;5.902;2023-05-27T09:42:18;10.18;;;3.00;;
38465;SDS011;24244;51.950;5.902;2023-05-27T09:44:46;8.27;;;2.70;;
38465;SDS011;24244;51.950;5.902;2023-05-27T09:47:15;5.43;;;2.72;;
38465;SDS011;24244;51.950;5.902;2023-05-27T09:49:43;7.97;;;2.67;;
38465;SDS011;24244;51.950;5.902;2023-05-27T09:52:14;10.25;;;3.10;;
38465;SDS011;24244;51.950;5.902;2023-05-27T09:54:45;6.00;;;2.58;;
38465;SDS011;24244;51.950;5.902;2023-05-27T09:57:13;6.82;;;2.75;;
38465;SDS011;24244;51.950;5.902;2023-05-27T09:59:45;4.70;;;2.28;;
38465;SDS011;24244;51.950;5.902;2023-05-27T10:02:12;4.25;;;2.35;;
38465;SDS011;24244;51.950;5.902;2023-05-27T10:04:44;7.65;;;2.63;;
38465;SDS011;24244;51.950;5.902;2023-05-27T10:07:11;10.52;;;3.17;;
38465;SDS011;24244;51.950;5.902;2023-05-27T10:09:47;8.23;;;2.30;;
38465;SDS011;24244;51.950;5.902;2023-05-27T10:12:14;6.60;;;2.33;;
38465;SDS011;24244;51.950;5.902;2023-05-27T10:14:43;6.55;;;2.40;;
38465;SDS011;24244;51.950;5.902;2023-05-27T10:17:12;6.78;;;2.10;;
38465;SDS011;24244;51.950;5.902;2023-05-27T10:19:49;5.28;;;2.42;;
38465;SDS011;24244;51.950;5.902;2023-05-27T10:22:20;6.65;;;2.20;;
38465;SDS011;24244;51.950;5.902;2023-05-27T10:24:47;9.55;;;3.28;;
38465;SDS011;24244;51.950;5.902;2023-05-27T10:27:21;6.10;;;2.30;;
38465;SDS011;24244;51.950;5.902;2023-05-27T10:29:57;8.90;;;2.95;;
38465;SDS011;24244;51.950;5.902;2023-05-27T10:32:25;7.60;;;2.50;;
38465;SDS011;24244;51.950;5.902;2023-05-27T10:34:52;9.02;;;2.67;;
38465;SDS011;24244;51.950;5.902;2023-05-27T10:37:22;9.10;;;2.47;;
38465;SDS011;24244;51.950;5.902;2023-05-27T10:39:55;13.25;;;2.97;;
38465;SDS011;24244;51.950;5.902;2023-05-27T10:42:22;6.20;;;2.33;;
38465;SDS011;24244;51.950;5.902;2023-05-27T10:44:50;9.40;;;2.65;;
38465;SDS011;24244;51.950;5.902;2023-05-27T10:47:33;8.60;;;2.40;;
38465;SDS011;24244;51.950;5.902;2023-05-27T10:50:09;7.88;;;2.63;;
38465;SDS011;24244;51.950;5.902;2023-05-27T10:52:38;5.85;;;2.15;;
38465;SDS011;24244;51.950;5.902;2023-05-27T10:55:06;6.43;;;2.30;;
38465;SDS011;24244;51.950;5.902;2023-05-27T10:57:33;4.97;;;2.03;;
38465;SDS011;24244;51.950;5.902;2023-05-27T11:00:01;7.57;;;2.42;;
38465;SDS011;24244;51.950;5.902;2023-05-27T11:02:38;6.50;;;2.90;;
38465;SDS011;24244;51.950;5.902;2023-05-27T11:05:08;7.53;;;2.63;;
38465;SDS011;24244;51.950;5.902;2023-05-27T11:07:36;8.93;;;3.08;;
38465;SDS011;24244;51.950;5.902;2023-05-27T11:10:03;8.43;;;3.13;;
38465;SDS011;24244;51.950;5.902;2023-05-27T11:12:33;5.47;;;2.88;;
38465;SDS011;24244;51.950;5.902;2023-05-27T11:15:00;6.07;;;2.17;;
38465;SDS011;24244;51.950;5.902;2023-05-27T11:17:27;4.95;;;1.83;;
38465;SDS011;24244;51.950;5.902;2023-05-27T11:19:56;7.82;;;2.05;;
38465;SDS011;24244;51.950;5.902;2023-05-27T11:22:23;7.40;;;2.90;;
38465;SDS011;24244;51.950;5.902;2023-05-27T11:24:56;6.70;;;2.70;;
38465;SDS011;24244;51.950;5.902;2023-05-27T11:27:25;8.52;;;3.45;;
38465;SDS011;24244;51.950;5.902;2023-05-27T11:29:58;9.60;;;3.63;;
38465;SDS011;24244;51.950;5.902;2023-05-27T11:32:26;5.35;;;1.98;;
38465;SDS011;24244;51.950;5.902;2023-05-27T11:34:52;8.82;;;2.53;;
38465;SDS011;24244;51.950;5.902;2023-05-27T11:37:24;5.30;;;1.95;;
38465;SDS011;24244;51.950;5.902;2023-05-27T11:39:58;5.45;;;1.98;;
38465;SDS011;24244;51.950;5.902;2023-05-27T11:42:24;8.55;;;2.53;;
38465;SDS011;24244;51.950;5.902;2023-05-27T11:44:51;5.85;;;2.60;;
38465;SDS011;24244;51.950;5.902;2023-05-27T11:47:19;6.57;;;2.00;;
38465;SDS011;24244;51.950;5.902;2023-05-27T11:49:47;4.90;;;1.70;;
38465;SDS011;24244;51.950;5.902;2023-05-27T11:52:16;6.50;;;2.40;;
38465;SDS011;24244;51.950;5.902;2023-05-27T11:54:43;8.50;;;3.83;;
38465;SDS011;24244;51.950;5.902;2023-05-27T11:57:22;5.20;;;2.50;;
38465;SDS011;24244;51.950;5.902;2023-05-27T11:59:49;11.55;;;2.83;;
38465;SDS011;24244;51.950;5.902;2023-05-27T12:02:16;7.00;;;2.20;;
38465;SDS011;24244;51.950;5.902;2023-05-27T12:04:43;7.38;;;2.65;;
38465;SDS011;24244;51.950;5.902;2023-05-27T12:07:09;5.07;;;1.90;;
38465;SDS011;24244;51.950;5.902;2023-05-27T12:09:47;6.55;;;2.30;;
38465;SDS011;24244;51.950;5.902;2023-05-27T12:12:18;6.53;;;2.13;;
38465;SDS011;24244;51.950;5.902;2023-05-27T12:14:45;4.72;;;1.73;;
38465;SDS011;24244;51.950;5.902;2023-05-27T12:17:12;5.70;;;2.08;;
38465;SDS011;24244;51.950;5.902;2023-05-27T12:19:39;5.80;;;1.85;;
38465;SDS011;24244;51.950;5.902;2023-05-27T12:22:05;6.63;;;2.35;;
38465;SDS011;24244;51.950;5.902;2023-05-27T12:24:32;5.25;;;2.17;;
38465;SDS011;24244;51.950;5.902;2023-05-27T12:27:02;6.13;;;1.90;;
38465;SDS011;24244;51.950;5.902;2023-05-27T12:29:29;5.13;;;1.73;;
38465;SDS011;24244;51.950;5.902;2023-05-27T12:31:56;5.97;;;2.00;;
38465;SDS011;24244;51.950;5.902;2023-05-27T12:34:24;4.05;;;1.80;;
38465;SDS011;24244;51.950;5.902;2023-05-27T12:36:51;5.85;;;1.95;;
38465;SDS011;24244;51.950;5.902;2023-05-27T12:39:18;4.50;;;2.15;;
38465;SDS011;24244;51.950;5.902;2023-05-27T12:41:47;5.32;;;1.60;;
38465;SDS011;24244;51.950;5.902;2023-05-27T12:44:15;5.30;;;1.73;;
38465;SDS011;24244;51.950;5.902;2023-05-27T12:46:43;5.45;;;2.03;;
38465;SDS011;24244;51.950;5.902;2023-05-27T12:49:10;5.38;;;2.15;;
38465;SDS011;24244;51.950;5.902;2023-05-27T12:51:36;6.93;;;2.15;;
38465;SDS011;24244;51.950;5.902;2023-05-27T12:54:04;6.43;;;2.35;;
38465;SDS011;24244;51.950;5.902;2023-05-27T12:56:32;5.07;;;1.63;;
38465;SDS011;24244;51.950;5.902;2023-05-27T12:58:59;7.78;;;2.75;;
38465;SDS011;24244;51.950;5.902;2023-05-27T13:01:27;4.90;;;2.13;;
38465;SDS011;24244;51.950;5.902;2023-05-27T13:03:55;6.60;;;2.25;;
38465;SDS011;24244;51.950;5.902;2023-05-27T13:06:22;5.28;;;2.20;;
38465;SDS011;24244;51.950;5.902;2023-05-27T13:08:49;5.68;;;2.42;;
38465;SDS011;24244;51.950;5.902;2023-05-27T13:11:16;6.97;;;2.40;;
38465;SDS011;24244;51.950;5.902;2023-05-27T13:13:43;5.95;;;2.10;;
38465;SDS011;24244;51.950;5.902;2023-05-27T13:16:10;6.72;;;1.80;;
38465;SDS011;24244;51.950;5.902;2023-05-27T13:18:38;5.93;;;2.03;;
38465;SDS011;24244;51.950;5.902;2023-05-27T13:21:05;5.70;;;2.38;;
38465;SDS011;24244;51.950;5.902;2023-05-27T13:23:33;5.80;;;2.08;;
38465;SDS011;24244;51.950;5.902;2023-05-27T13:26:02;6.97;;;2.92;;
38465;SDS011;24244;51.950;5.902;2023-05-27T13:28:31;5.13;;;2.28;;
38465;SDS011;24244;51.950;5.902;2023-05-27T13:30:58;8.45;;;2.80;;
38465;SDS011;24244;51.950;5.902;2023-05-27T13:33:25;4.60;;;1.88;;
38465;SDS011;24244;51.950;5.902;2023-05-27T13:35:53;4.55;;;2.28;;
38465;SDS011;24244;51.950;5.902;2023-05-27T13:38:20;7.22;;;2.60;;
38465;SDS011;24244;51.950;5.902;2023-05-27T13:40:47;7.20;;;2.53;;
38465;SDS011;24244;51.950;5.902;2023-05-27T13:43:13;6.18;;;2.60;;
38465;SDS011;24244;51.950;5.902;2023-05-27T13:45:40;5.03;;;2.50;;
38465;SDS011;24244;51.950;5.902;2023-05-27T13:48:07;5.85;;;1.75;;
38465;SDS011;24244;51.950;5.902;2023-05-27T13:50:35;6.53;;;2.33;;
38465;SDS011;24244;51.950;5.902;2023-05-27T13:53:04;4.43;;;1.90;;
38465;SDS011;24244;51.950;5.902;2023-05-27T13:55:31;6.28;;;2.20;;
38465;SDS011;24244;51.950;5.902;2023-05-27T13:57:59;4.97;;;1.80;;
38465;SDS011;24244;51.950;5.902;2023-05-27T14:00:25;7.10;;;2.30;;
38465;SDS011;24244;51.950;5.902;2023-05-27T14:02:52;6.60;;;2.40;;
38465;SDS011;24244;51.950;5.902;2023-05-27T14:05:22;5.28;;;1.98;;
38465;SDS011;24244;51.950;5.902;2023-05-27T14:07:48;5.43;;;1.95;;
38465;SDS011;24244;51.950;5.902;2023-05-27T14:10:16;5.78;;;1.95;;
38465;SDS011;24244;51.950;5.902;2023-05-27T14:12:43;5.47;;;2.40;;
38465;SDS011;24244;51.950;5.902;2023-05-27T14:15:10;6.47;;;2.47;;
38465;SDS011;24244;51.950;5.902;2023-05-27T14:17:37;5.15;;;1.92;;
38465;SDS011;24244;51.950;5.902;2023-05-27T14:20:04;4.88;;;2.15;;
38465;SDS011;24244;51.950;5.902;2023-05-27T14:22:37;5.32;;;1.90;;
38465;SDS011;24244;51.950;5.902;2023-05-27T14:25:05;5.50;;;1.60;;
38465;SDS011;24244;51.950;5.902;2023-05-27T14:27:33;4.47;;;2.08;;
38465;SDS011;24244;51.950;5.902;2023-05-27T14:30:00;5.53;;;1.73;;
38465;SDS011;24244;51.950;5.902;2023-05-27T14:32:27;4.97;;;1.95;;
38465;SDS011;24244;51.950;5.902;2023-05-27T14:34:54;4.75;;;1.77;;
38465;SDS011;24244;51.950;5.902;2023-05-27T14:37:22;5.60;;;2.05;;
38465;SDS011;24244;51.950;5.902;2023-05-27T14:39:50;5.07;;;1.77;;
38465;SDS011;24244;51.950;5.902;2023-05-27T14:42:17;3.97;;;2.08;;
38465;SDS011;24244;51.950;5.902;2023-05-27T14:44:45;4.05;;;2.15;;
38465;SDS011;24244;51.950;5.902;2023-05-27T14:47:12;4.50;;;1.90;;
38465;SDS011;24244;51.950;5.902;2023-05-27T14:49:39;5.32;;;2.30;;
38465;SDS011;24244;51.950;5.902;2023-05-27T14:52:06;5.30;;;1.88;;